Time;durP1;ratioP1;P1;durP2;ratioP2;P2;SDS_P1;SDS_P2;PMS_P1;PMS_P2;Temp;Humidity;BMP_temperature;BMP_pressure;BME280_temperature;BME280_humidity;BME280_pressure;Samples;Min_cycle;Max_cycle;Signal;HPM_P1;HPM_P2
2022/03/21 00:01:16;;;;;;;31.90;14.45;;;6.80;99.90;;;;;;4883765;29;20067;-82
2022/03/21 00:03:42;;;;;;;32.15;16.52;;;6.80;99.90;;;;;;4895472;29;20634;-83
2022/03/21 00:06:08;;;;;;;;;;;6.80;99.90;;;;;;4875395;29;20048;-83
2022/03/21 00:08:34;;;;;;;27.63;13.45;;;6.80;99.90;;;;;;4888353;29;20391;-82
2022/03/21 00:10:59;;;;;;;27.98;14.65;;;6.70;99.90;;;;;;4880475;29;20053;-82
2022/03/21 00:13:26;;;;;;;26.52;13.32;;;6.70;99.90;;;;;;4896605;29;20106;-82
2022/03/21 00:15:53;;;;;;;30.65;13.65;;;6.70;99.90;;;;;;4878087;29;20050;-82
2022/03/21 00:18:19;;;;;;;23.75;13.63;;;6.70;99.90;;;;;;4897764;29;20052;-82
2022/03/21 00:20:47;;;;;;;28.77;14.48;;;6.70;99.90;;;;;;4898296;29;20744;-82
2022/03/21 00:23:13;;;;;;;27.98;14.15;;;6.70;99.90;;;;;;4864919;29;20052;-82
2022/03/21 00:25:39;;;;;;;25.15;13.75;;;6.60;99.90;;;;;;4898145;29;20047;-82
2022/03/21 00:28:07;;;;;;;29.15;13.75;;;6.60;99.90;;;;;;4866651;29;20130;-82
2022/03/21 00:30:34;;;;;;;28.35;14.63;;;6.60;99.90;;;;;;4864891;29;20063;-82
2022/03/21 00:33:00;;;;;;;30.20;14.35;;;6.60;99.90;;;;;;4898060;29;20055;-83
2022/03/21 00:35:28;;;;;;;29.83;14.55;;;6.90;99.90;;;;;;4883558;29;20056;-83
2022/03/21 00:37:55;;;;;;;30.45;15.48;;;6.60;99.90;;;;;;4898799;29;20120;-83
2022/03/21 00:40:21;;;;;;;29.90;14.60;;;6.60;99.90;;;;;;4892298;29;20108;-83
2022/03/21 00:42:48;;;;;;;28.50;13.95;;;6.60;99.90;;;;;;4897550;29;20052;-81
2022/03/21 00:45:16;;;;;;;29.77;15.07;;;6.60;99.90;;;;;;4899191;29;20060;-83
2022/03/21 00:47:43;;;;;;;24.75;14.02;;;6.60;99.90;;;;;;4883747;29;20104;-83
2022/03/21 00:50:10;;;;;;;29.25;13.35;;;6.90;99.90;;;;;;4864339;29;20056;-83
2022/03/21 00:52:45;;;;;;;27.70;14.00;;;6.60;99.90;;;;;;4879093;29;20109;-83
2022/03/21 00:55:11;;;;;;;25.85;13.63;;;6.60;99.90;;;;;;4880844;29;20402;-82
2022/03/21 00:57:42;;;;;;;24.27;13.70;;;6.60;99.90;;;;;;4897840;29;20067;-83
2022/03/21 01:00:12;;;;;;;30.30;14.35;;;6.60;99.90;;;;;;4899189;29;20060;-82
2022/03/21 01:02:38;;;;;;;27.85;14.02;;;6.50;99.90;;;;;;4894807;29;20056;-82
2022/03/21 01:05:05;;;;;;;32.35;14.05;;;6.70;99.90;;;;;;4879881;29;20067;-82
2022/03/21 01:07:31;;;;;;;28.08;12.77;;;6.50;99.90;;;;;;4880101;29;20084;-82
2022/03/21 01:09:57;;;;;;;25.83;13.68;;;6.50;99.90;;;;;;4876793;29;20840;-82
2022/03/21 01:12:23;;;;;;;26.90;13.90;;;6.50;99.90;;;;;;4897680;29;20124;-82
2022/03/21 01:14:49;;;;;;;;;;;6.50;99.90;;;;;;4881978;29;20062;-83
2022/03/21 01:17:15;;;;;;;27.65;13.20;;;6.40;99.90;;;;;;4878833;29;19927;-82
2022/03/21 01:19:41;;;;;;;31.23;14.35;;;6.70;99.90;;;;;;4878796;29;20048;-83
2022/03/21 01:22:06;;;;;;;25.42;13.70;;;6.40;99.90;;;;;;4864029;29;20402;-82
2022/03/21 01:24:37;;;;;;;29.67;14.02;;;6.40;99.90;;;;;;4881088;29;20052;-82
2022/03/21 01:27:05;;;;;;;31.08;15.30;;;6.40;99.90;;;;;;4897439;29;20513;-82
2022/03/21 01:29:30;;;;;;;28.30;13.85;;;6.40;99.90;;;;;;4888198;29;20547;-82
2022/03/21 01:31:56;;;;;;;32.47;15.43;;;6.40;99.90;;;;;;4871589;29;20055;-82
2022/03/21 01:34:22;;;;;;;35.58;14.68;;;6.50;99.90;;;;;;4864661;29;20483;-82
2022/03/21 01:36:48;;;;;;;28.48;15.15;;;6.40;99.90;;;;;;4897868;29;20143;-82
2022/03/21 01:39:13;;;;;;;29.70;14.45;;;6.40;99.90;;;;;;4880821;29;20083;-82
2022/03/21 01:41:39;;;;;;;29.40;14.35;;;6.50;99.90;;;;;;4897704;29;20173;-83
2022/03/21 01:44:07;;;;;;;27.88;15.57;;;6.60;99.90;;;;;;4882085;29;20112;-82
2022/03/21 01:46:34;;;;;;;31.27;15.25;;;6.30;99.90;;;;;;4868266;29;20469;-82
2022/03/21 01:49:00;;;;;;;31.80;16.33;;;6.40;99.90;;;;;;4895095;29;20080;-82
2022/03/21 01:51:26;;;;;;;;;;;6.40;99.90;;;;;;4898206;29;20054;-82
2022/03/21 01:56:43;;;;;;;32.90;15.80;;;6.90;99.90;;;;;;4896191;29;20048;-82
2022/03/21 01:59:09;;;;;;;32.72;16.20;;;6.30;99.90;;;;;;4897266;29;20067;-82
2022/03/21 02:01:36;;;;;;;31.20;16.17;;;6.30;99.90;;;;;;4886228;29;20406;-82
2022/03/21 02:04:02;;;;;;;32.05;16.10;;;6.30;99.90;;;;;;4885598;29;20131;-82
2022/03/21 02:06:28;;;;;;;32.50;15.63;;;6.30;99.90;;;;;;4895773;29;20059;-82
2022/03/21 02:08:59;;;;;;;31.58;16.50;;;6.30;99.90;;;;;;4869210;29;20405;-82
2022/03/21 02:11:26;;;;;;;29.65;16.25;;;6.30;99.90;;;;;;4886930;29;20063;-82
2022/03/21 02:13:56;;;;;;;31.23;15.85;;;6.20;99.90;;;;;;4862402;29;20048;-82
2022/03/21 02:16:24;;;;;;;31.05;15.43;;;6.20;99.90;;;;;;4871665;29;20139;-82
2022/03/21 02:18:50;;;;;;;27.73;14.93;;;6.20;99.90;;;;;;4865989;29;20132;-82
2022/03/21 02:21:24;;;;;;;32.95;14.90;;;6.20;99.90;;;;;;4879699;29;20537;-82
2022/03/21 02:24:02;;;;;;;28.60;15.15;;;6.20;99.90;;;;;;4896182;29;20589;-82
2022/03/21 02:26:29;;;;;;;33.88;15.45;;;6.40;99.90;;;;;;4878904;29;20052;-82
2022/03/21 02:28:56;;;;;;;32.33;15.50;;;6.20;99.90;;;;;;4877313;29;20049;-82
2022/03/21 02:31:23;;;;;;;31.08;14.10;;;6.20;99.90;;;;;;4876852;29;20044;-82
2022/03/21 02:33:50;;;;;;;28.48;14.50;;;6.20;99.90;;;;;;4876837;29;20104;-82
2022/03/21 02:36:17;;;;;;;27.63;14.60;;;6.10;99.90;;;;;;4888052;29;20067;-82
2022/03/21 02:38:44;;;;;;;29.33;14.80;;;6.10;99.90;;;;;;4897103;29;20048;-82
2022/03/21 02:41:13;;;;;;;35.38;14.73;;;6.10;99.90;;;;;;4896508;29;20044;-82
2022/03/21 02:43:52;;;;;;;29.30;15.00;;;6.10;99.90;;;;;;4895232;29;20056;-82
2022/03/21 02:46:18;;;;;;;30.63;14.77;;;6.10;99.90;;;;;;4878917;29;20139;-82
2022/03/21 02:48:51;;;;;;;34.28;15.75;;;6.00;99.90;;;;;;4847147;29;20128;-82
2022/03/21 02:51:20;;;;;;;31.35;15.23;;;6.20;99.90;;;;;;4876576;29;20053;-82
2022/03/21 02:53:48;;;;;;;28.48;15.38;;;6.10;99.90;;;;;;4897335;29;20056;-82
2022/03/21 02:56:14;;;;;;;28.48;15.35;;;6.00;99.90;;;;;;4896818;29;20083;-82
2022/03/21 02:58:40;;;;;;;32.00;15.18;;;6.00;99.90;;;;;;4890303;29;20541;-81
2022/03/21 03:01:14;;;;;;;29.13;15.43;;;6.00;99.90;;;;;;4881437;29;20059;-82
2022/03/21 03:03:41;;;;;;;32.45;15.90;;;6.00;99.90;;;;;;4887355;29;20053;-82
2022/03/21 03:06:07;;;;;;;33.35;15.45;;;6.00;99.90;;;;;;4881288;29;20079;-82
2022/03/21 03:08:33;;;;;;;;;;;5.90;99.90;;;;;;4878028;29;20120;-82
2022/03/21 03:10:59;;;;;;;28.27;13.90;;;6.10;99.90;;;;;;4883873;29;19923;-82
2022/03/21 03:13:24;;;;;;;34.85;16.08;;;5.80;99.90;;;;;;4862293;29;20052;-82
2022/03/21 03:15:51;;;;;;;33.90;15.38;;;5.70;99.90;;;;;;4879459;29;20053;-82
2022/03/21 03:18:17;;;;;;;30.33;15.20;;;6.10;99.90;;;;;;4883327;29;20052;-81
2022/03/21 03:20:50;;;;;;;27.85;14.30;;;5.70;99.90;;;;;;4900851;29;20056;-82
2022/03/21 03:23:21;;;;;;;27.80;13.65;;;5.70;99.90;;;;;;4885819;29;20064;-81
2022/03/21 03:25:52;;;;;;;32.30;15.30;;;5.50;99.90;;;;;;4881732;29;20104;-82
2022/03/21 03:28:17;;;;;;;27.60;14.90;;;5.40;99.90;;;;;;4881006;29;20055;-81
2022/03/21 03:30:43;;;;;;;29.67;15.50;;;5.50;99.90;;;;;;4867084;29;20049;-82
2022/03/21 03:33:09;;;;;;;34.33;15.95;;;5.40;99.90;;;;;;4897738;29;20052;-82
2022/03/21 03:35:35;;;;;;;32.35;16.75;;;5.20;99.90;;;;;;4869369;29;20052;-82
2022/03/21 03:38:02;;;;;;;34.63;17.98;;;5.10;99.90;;;;;;4865532;29;20064;-81
2022/03/21 03:40:27;;;;;;;31.95;15.73;;;5.10;99.90;;;;;;4881264;29;20395;-82
2022/03/21 03:42:53;;;;;;;35.95;16.95;;;5.00;99.90;;;;;;4880349;29;20064;-82
2022/03/21 03:45:19;;;;;;;38.50;17.60;;;5.00;99.90;;;;;;4885185;29;20081;-81
2022/03/21 03:47:45;;;;;;;37.22;17.45;;;5.00;99.90;;;;;;4885529;29;20044;-81
2022/03/21 03:50:11;;;;;;;32.95;16.30;;;4.90;99.90;;;;;;4882861;29;20766;-82
2022/03/21 03:52:38;;;;;;;34.17;15.65;;;5.10;99.90;;;;;;4896553;29;20545;-82
2022/03/21 03:55:04;;;;;;;32.40;16.00;;;4.90;99.90;;;;;;4886832;29;20048;-81
2022/03/21 03:57:30;;;;;;;;;;;4.80;99.90;;;;;;4865411;29;20056;-81
2022/03/21 03:59:56;;;;;;;32.80;15.52;;;4.80;99.90;;;;;;4873512;29;20295;-81
2022/03/21 04:02:21;;;;;;;33.40;16.55;;;4.80;99.90;;;;;;4865581;29;20052;-81
2022/03/21 04:04:48;;;;;;;35.88;16.60;;;5.00;99.90;;;;;;4883784;29;20079;-82
2022/03/21 04:07:14;;;;;;;34.03;16.83;;;5.00;99.90;;;;;;4880744;29;20630;-81
2022/03/21 04:09:39;;;;;;;32.33;15.45;;;4.60;99.90;;;;;;4885532;29;20040;-81
2022/03/21 04:12:05;;;;;;;34.28;16.10;;;4.60;99.90;;;;;;4879821;29;20478;-81
2022/03/21 04:14:31;;;;;;;33.55;15.98;;;4.60;99.90;;;;;;4892123;29;20063;-81
2022/03/21 04:16:57;;;;;;;25.80;12.98;;;4.50;99.90;;;;;;4897655;29;20402;-83
2022/03/21 04:19:23;;;;;;;31.40;14.57;;;4.50;99.90;;;;;;4899669;29;20383;-81
2022/03/21 04:21:49;;;;;;;25.80;12.48;;;4.40;99.90;;;;;;4883974;29;20112;-81
2022/03/21 04:24:14;;;;;;;28.63;13.35;;;4.40;99.90;;;;;;4867408;29;20052;-80
2022/03/21 04:26:41;;;;;;;31.33;14.73;;;4.20;99.90;;;;;;4882320;29;20048;-80
2022/03/21 04:29:07;;;;;;;30.05;14.30;;;4.60;99.90;;;;;;4898601;29;20426;-81
2022/03/21 04:31:33;;;;;;;28.92;14.07;;;4.00;99.90;;;;;;4853590;29;20056;-79
2022/03/21 04:33:59;;;;;;;29.90;14.32;;;3.90;99.90;;;;;;4895739;29;20060;-81
2022/03/21 04:36:25;;;;;;;37.42;16.00;;;3.90;99.90;;;;;;4880912;29;20387;-80
2022/03/21 04:38:51;;;;;;;35.50;15.48;;;3.80;99.90;;;;;;4869584;29;20486;-81
2022/03/21 04:41:17;;;;;;;31.05;15.43;;;3.80;99.90;;;;;;4883067;29;20056;-80
2022/03/21 04:43:42;;;;;;;38.60;17.60;;;3.80;99.90;;;;;;4898470;29;20061;-80
2022/03/21 04:46:09;;;;;;;34.60;17.60;;;3.80;99.90;;;;;;4898373;29;20056;-80
2022/03/21 04:48:35;;;;;;;33.50;17.70;;;3.70;99.90;;;;;;4880957;29;20055;-80
2022/03/21 04:51:00;;;;;;;33.53;17.13;;;3.80;99.90;;;;;;4893159;29;20136;-81
2022/03/21 04:53:26;;;;;;;38.05;16.50;;;4.10;99.90;;;;;;4864724;29;20057;-80
2022/03/21 04:55:52;;;;;;;41.28;18.30;;;3.70;99.90;;;;;;4882666;29;20044;-80
2022/03/21 04:58:17;;;;;;;32.88;16.25;;;3.70;99.90;;;;;;4881735;29;20135;-80
2022/03/21 05:00:46;;;;;;;40.05;18.25;;;3.70;99.90;;;;;;4898006;29;20080;-83
2022/03/21 05:03:12;;;;;;;37.83;16.45;;;3.60;99.90;;;;;;4878510;29;20052;-82
2022/03/21 05:05:38;;;;;;;38.08;16.38;;;3.50;99.90;;;;;;4865070;29;20541;-82
2022/03/21 05:08:04;;;;;;;37.30;18.00;;;3.50;99.90;;;;;;4865932;29;20052;-82
2022/03/21 05:10:31;;;;;;;48.30;19.88;;;3.70;99.90;;;;;;4898442;29;20044;-82
2022/03/21 05:12:58;;;;;;;36.03;17.63;;;3.80;99.90;;;;;;4856151;29;20067;-82
2022/03/21 05:15:25;;;;;;;32.30;16.05;;;3.40;99.90;;;;;;4887251;29;20060;-82
2022/03/21 05:17:52;;;;;;;39.42;16.65;;;3.50;99.90;;;;;;4891559;29;20045;-82
2022/03/21 05:20:18;;;;;;;39.38;18.23;;;3.40;99.90;;;;;;4882051;29;20055;-82
2022/03/21 05:30:57;;;;;;;34.13;16.25;;;3.40;99.90;;;;;;4891409;29;20059;-82
2022/03/21 05:31:04;;;;;;;31.92;15.43;;;3.30;99.90;;;;;;4872943;29;20052;-83
2022/03/21 05:36:15;;;;;;;36.58;15.13;;;3.10;99.90;;;;;;4898018;29;19923;-82
2022/03/21 05:38:41;;;;;;;29.60;14.55;;;3.20;99.90;;;;;;4884485;29;20106;-82
2022/03/21 05:41:06;;;;;;;32.38;13.88;;;3.20;99.90;;;;;;4879026;29;20083;-82
2022/03/21 05:43:33;;;;;;;29.80;15.30;;;3.10;99.90;;;;;;4863365;29;20048;-82
2022/03/21 05:46:01;;;;;;;34.22;14.98;;;3.20;99.90;;;;;;4855747;29;20062;-82
2022/03/21 05:51:12;;;;;;;36.50;16.02;;;3.00;99.90;;;;;;4883959;29;20546;-82
2022/03/21 05:53:38;;;;;;;38.13;17.17;;;2.90;99.90;;;;;;4883678;29;20052;-82
2022/03/21 05:56:04;;;;;;;30.92;14.93;;;2.90;99.90;;;;;;4882392;29;20056;-81
2022/03/21 05:58:30;;;;;;;35.45;16.30;;;2.90;99.90;;;;;;4887473;29;20056;-82
2022/03/21 06:00:56;;;;;;;39.10;17.80;;;3.20;99.90;;;;;;4885459;29;20063;-82
2022/03/21 06:03:22;;;;;;;;;;;2.90;99.90;;;;;;4881998;29;20393;-82
2022/03/21 06:05:49;;;;;;;44.85;17.85;;;2.90;99.90;;;;;;4881529;29;19930;-83
2022/03/21 06:08:14;;;;;;;32.15;14.82;;;2.90;99.90;;;;;;4878413;29;20074;-83
2022/03/21 06:10:40;;;;;;;36.33;15.48;;;2.90;99.90;;;;;;4878681;29;20507;-83
2022/03/21 06:13:06;;;;;;;38.95;17.00;;;2.90;99.90;;;;;;4862462;29;20044;-83
2022/03/21 06:15:34;;;;;;;33.45;15.93;;;3.20;99.90;;;;;;4879010;29;20045;-83
2022/03/21 06:17:59;;;;;;;44.33;17.92;;;2.90;99.90;;;;;;4885028;29;20177;-83
2022/03/21 06:20:27;;;;;;;37.47;16.67;;;2.90;99.90;;;;;;4881481;29;20068;-83
2022/03/21 06:22:52;;;;;;;35.00;16.05;;;3.00;99.90;;;;;;4878866;29;20090;-83
2022/03/21 06:25:18;;;;;;;37.95;17.17;;;3.50;99.90;;;;;;4878105;29;20088;-83
2022/03/21 06:27:44;;;;;;;36.75;17.38;;;3.00;99.90;;;;;;4847345;29;20082;-83
2022/03/21 06:30:10;;;;;;;39.97;18.45;;;3.10;99.90;;;;;;4878365;29;20053;-84
2022/03/21 06:32:37;;;;;;;40.95;17.20;;;3.40;99.90;;;;;;4880568;29;20080;-84
2022/03/21 06:35:04;;;;;;;45.53;18.73;;;3.10;99.90;;;;;;4868779;29;20104;-82
2022/03/21 06:37:33;;;;;;;39.05;18.13;;;3.10;99.90;;;;;;4877842;29;20045;-82
2022/03/21 06:39:59;;;;;;;37.03;18.05;;;3.20;99.90;;;;;;4893341;29;20442;-82
2022/03/21 06:42:24;;;;;;;44.67;19.27;;;3.50;99.90;;;;;;4880528;29;20098;-82
2022/03/21 06:44:50;;;;;;;49.45;19.55;;;3.20;99.90;;;;;;4897411;29;20055;-83
2022/03/21 06:47:17;;;;;;;41.47;18.48;;;3.30;99.90;;;;;;4893457;29;20091;-83
2022/03/21 06:49:43;;;;;;;45.22;19.70;;;3.40;99.90;;;;;;4863037;29;20585;-83
2022/03/21 06:52:09;;;;;;;;;;;3.40;99.90;;;;;;4882935;29;20139;-83
2022/03/21 06:54:36;;;;;;;38.38;18.10;;;3.50;99.90;;;;;;4881508;29;20022;-83
2022/03/21 06:57:02;;;;;;;40.58;19.02;;;3.60;99.90;;;;;;4881969;29;20060;-83
2022/03/21 06:59:29;;;;;;;45.80;20.15;;;3.60;99.90;;;;;;4881873;29;20303;-83
2022/03/21 07:01:56;;;;;;;45.20;20.60;;;3.70;99.90;;;;;;4883124;29;20052;-84
2022/03/21 07:04:23;;;;;;;46.83;21.65;;;3.90;99.90;;;;;;4883843;29;20084;-83
2022/03/21 07:06:50;;;;;;;45.08;21.02;;;4.00;99.90;;;;;;4896195;29;20104;-83
2022/03/21 07:09:16;;;;;;;46.63;20.88;;;4.20;99.90;;;;;;4881662;29;20453;-83
2022/03/21 07:11:41;;;;;;;47.38;22.25;;;4.30;99.90;;;;;;4883149;29;20123;-82
2022/03/21 07:14:07;;;;;;;51.70;21.73;;;4.20;99.90;;;;;;4882371;29;20058;-83
2022/03/21 07:16:33;;;;;;;57.65;23.08;;;4.30;99.90;;;;;;4889223;29;20131;-83
2022/03/21 07:18:58;;;;;;;47.60;22.98;;;4.90;99.90;;;;;;4876501;29;20059;-84
2022/03/21 07:21:24;;;;;;;48.03;21.05;;;4.50;99.90;;;;;;4882726;29;20076;-83
2022/03/21 07:23:50;;;;;;;47.97;22.20;;;4.50;99.90;;;;;;4870516;29;20048;-86
2022/03/21 07:26:16;;;;;;;53.67;22.38;;;4.50;99.90;;;;;;4882409;29;20063;-85
2022/03/21 07:28:41;;;;;;;55.17;22.80;;;4.60;99.90;;;;;;4879433;29;20045;-87
2022/03/21 07:31:09;;;;;;;51.67;22.92;;;4.60;99.90;;;;;;4884523;29;20067;-85
2022/03/21 07:33:39;;;;;;;57.47;24.20;;;4.70;99.90;;;;;;4881420;29;20044;-86
2022/03/21 07:36:05;;;;;;;58.80;24.55;;;4.80;99.90;;;;;;4895345;29;20434;-81
2022/03/21 07:38:31;;;;;;;;;;;4.90;99.90;;;;;;4894501;29;20040;-81
2022/03/21 07:40:59;;;;;;;47.88;20.73;;;4.90;99.90;;;;;;4887722;29;19923;-79
2022/03/21 07:43:25;;;;;;;52.60;21.90;;;5.00;99.90;;;;;;4915246;29;20056;-81
2022/03/21 07:48:35;;;;;;;50.97;21.27;;;5.10;99.90;;;;;;4897202;29;20056;-81
2022/03/21 07:51:01;;;;;;;43.20;19.55;;;5.10;99.90;;;;;;4889511;29;20048;-80
2022/03/21 07:53:27;;;;;;;42.63;19.85;;;5.20;99.90;;;;;;4905493;29;20502;-80
2022/03/21 07:55:53;;;;;;;41.03;19.38;;;5.30;99.90;;;;;;4897799;29;20053;-80
2022/03/21 07:58:19;;;;;;;38.88;19.27;;;5.30;99.90;;;;;;4896196;29;20107;-78
2022/03/21 08:00:45;;;;;;;40.13;18.65;;;5.50;99.90;;;;;;4880627;29;20067;-81
2022/03/21 08:03:15;;;;;;;40.55;18.63;;;5.70;99.90;;;;;;4902632;29;20048;-81
2022/03/21 08:05:41;;;;;;;36.00;18.23;;;5.60;99.90;;;;;;4899456;29;20068;-77
2022/03/21 08:08:07;;;;;;;38.58;19.17;;;5.60;99.90;;;;;;4899273;29;20048;-81
2022/03/21 08:10:34;;;;;;;36.92;18.05;;;5.70;99.90;;;;;;4913169;29;20171;-83
2022/03/21 08:12:59;;;;;;;35.33;16.83;;;5.80;99.90;;;;;;4879962;29;20045;-82
2022/03/21 08:15:28;;;;;;;36.58;17.05;;;6.10;99.90;;;;;;4900193;29;20119;-84
2022/03/21 08:17:59;;;;;;;32.15;16.60;;;5.90;99.90;;;;;;4899428;29;20115;-84
2022/03/21 08:20:34;;;;;;;34.97;15.88;;;6.00;99.90;;;;;;4899205;29;20060;-84
2022/03/21 08:23:06;;;;;;;33.10;15.55;;;6.00;99.90;;;;;;4899741;29;20052;-82
2022/03/21 08:25:32;;;;;;;31.52;15.00;;;6.10;99.90;;;;;;4881749;29;20052;-82
2022/03/21 08:27:58;;;;;;;34.05;15.07;;;6.20;99.90;;;;;;4880060;29;20048;-82
2022/03/21 08:30:24;;;;;;;27.70;14.30;;;6.30;99.90;;;;;;4881457;29;20063;-86
2022/03/21 08:32:50;;;;;;;26.23;13.07;;;6.40;99.90;;;;;;4870316;29;20048;-82
2022/03/21 08:35:18;;;;;;;24.73;13.90;;;6.60;99.90;;;;;;4897448;29;20048;-81
2022/03/21 08:37:45;;;;;;;25.60;13.32;;;6.90;99.90;;;;;;4895202;29;20498;-82
2022/03/21 08:40:11;;;;;;;25.90;13.52;;;6.80;99.90;;;;;;4880008;29;20494;-81
2022/03/21 08:42:37;;;;;;;26.70;13.73;;;6.90;99.90;;;;;;4895931;29;20053;-81
2022/03/21 08:45:04;;;;;;;23.42;11.65;;;6.90;99.90;;;;;;4865282;29;20192;-84
2022/03/21 08:47:30;;;;;;;25.55;12.15;;;7.00;99.90;;;;;;4896323;29;20059;-81
2022/03/21 08:49:56;;;;;;;25.23;12.77;;;7.10;99.90;;;;;;4887108;29;20044;-82
2022/03/21 08:52:21;;;;;;;30.35;13.20;;;7.20;99.90;;;;;;4903670;29;20752;-80
2022/03/21 08:54:48;;;;;;;27.52;14.07;;;7.20;99.90;;;;;;4914786;29;20098;-82
2022/03/21 08:57:13;;;;;;;29.58;14.15;;;7.40;99.90;;;;;;4914974;29;20052;-82
2022/03/21 08:59:39;;;;;;;26.48;13.85;;;7.40;99.90;;;;;;4896034;29;20485;-83
2022/03/21 09:02:05;;;;;;;24.45;13.68;;;7.50;99.90;;;;;;4897888;29;20119;-82
2022/03/21 09:04:31;;;;;;;27.38;12.90;;;7.60;99.90;;;;;;4898030;29;20060;-82
2022/03/21 09:06:57;;;;;;;26.10;14.02;;;7.70;99.90;;;;;;4867872;29;20052;-82
2022/03/21 09:09:23;;;;;;;25.70;11.95;;;8.00;99.90;;;;;;4897853;29;20045;-79
2022/03/21 09:11:48;;;;;;;26.95;14.50;;;7.90;99.90;;;;;;4911353;29;20057;-87
2022/03/21 09:14:14;;;;;;;25.27;12.40;;;8.00;99.90;;;;;;4884291;29;20486;-81
2022/03/21 09:16:42;;;;;;;23.63;12.45;;;8.00;99.90;;;;;;4884899;29;20072;-84
2022/03/21 09:19:09;;;;;;;25.30;13.55;;;8.10;99.90;;;;;;4875821;29;20138;-87
2022/03/21 09:21:35;;;;;;;27.00;13.18;;;8.20;99.90;;;;;;4887156;29;20057;-89
2022/03/21 09:24:02;;;;;;;25.10;13.10;;;8.30;99.90;;;;;;4877477;29;20080;-85
2022/03/21 09:26:27;;;;;;;27.15;13.43;;;8.40;99.90;;;;;;4890707;29;20555;-83
2022/03/21 09:29:00;;;;;;;25.30;13.38;;;8.50;99.90;;;;;;4891523;29;20084;-84
2022/03/21 09:31:27;;;;;;;32.75;14.23;;;8.50;99.90;;;;;;4898108;29;20058;-83
2022/03/21 09:33:54;;;;;;;32.17;14.07;;;8.60;99.90;;;;;;4894365;29;20044;-84
2022/03/21 09:36:20;;;;;;;26.95;14.30;;;8.70;99.90;;;;;;4879878;29;20482;-84
2022/03/21 09:38:45;;;;;;;26.65;15.07;;;8.80;99.90;;;;;;4884987;29;20052;-84
2022/03/21 09:41:22;;;;;;;36.85;15.60;;;8.90;99.90;;;;;;4882634;29;20060;-84
2022/03/21 09:43:50;;;;;;;32.75;15.30;;;9.00;99.90;;;;;;4882611;29;20131;-84
2022/03/21 09:46:16;;;;;;;26.65;15.00;;;9.00;99.90;;;;;;4881561;29;20063;-84
2022/03/21 09:48:50;;;;;;;27.23;14.82;;;9.10;99.90;;;;;;4909183;29;20059;-84
2022/03/21 09:51:26;;;;;;;27.40;15.98;;;9.10;99.90;;;;;;4897792;29;20634;-83
2022/03/21 09:53:53;;;;;;;30.95;15.52;;;9.20;99.90;;;;;;4897796;29;20052;-84
2022/03/21 09:56:19;;;;;;;30.58;16.05;;;9.20;99.90;;;;;;4882122;29;20478;-83
2022/03/21 09:58:46;;;;;;;31.42;16.45;;;9.20;99.90;;;;;;4880140;29;20060;-83
2022/03/21 10:01:12;;;;;;;;;;;9.30;99.90;;;;;;4867373;29;20111;-84
2022/03/21 10:03:39;;;;;;;37.17;16.83;;;9.40;99.90;;;;;;4894499;29;19927;-82
2022/03/21 10:06:33;;;;;;;34.33;17.48;;;9.40;99.90;;;;;;4893136;29;20087;-85
2022/03/21 10:09:13;;;;;;;35.47;18.23;;;9.50;99.90;;;;;;4884549;29;20049;-84
2022/03/21 10:11:56;;;;;;;32.72;17.15;;;9.50;99.90;;;;;;4865051;29;20064;-84
2022/03/21 10:14:24;;;;;;;35.40;17.77;;;9.70;99.90;;;;;;4904952;29;20059;-84
2022/03/21 10:16:59;;;;;;;38.05;18.13;;;9.70;99.90;;;;;;4903038;29;20051;-84
2022/03/21 10:19:27;;;;;;;35.60;19.48;;;9.80;99.90;;;;;;4914312;29;20100;-84
2022/03/21 10:22:01;;;;;;;37.67;18.08;;;9.90;99.90;;;;;;4897276;29;20056;-85
2022/03/21 10:24:27;;;;;;;35.17;18.45;;;10.10;99.90;;;;;;4880101;29;20054;-84
2022/03/21 10:26:53;;;;;;;33.10;16.98;;;10.10;99.90;;;;;;4892908;29;20059;-84
2022/03/21 10:29:19;;;;;;;34.28;18.73;;;10.20;99.90;;;;;;4878332;29;20044;-85
2022/03/21 10:31:46;;;;;;;33.90;18.30;;;10.20;99.90;;;;;;4878246;29;20135;-84
2022/03/21 10:34:23;;;;;;;38.50;19.48;;;10.40;99.90;;;;;;4888321;29;20131;-84
2022/03/21 10:37:07;;;;;;;35.28;18.63;;;10.50;99.90;;;;;;4897188;29;20135;-85
2022/03/21 10:39:38;;;;;;;35.83;18.02;;;10.70;99.90;;;;;;4896339;29;20478;-84
2022/03/21 10:42:06;;;;;;;38.78;20.33;;;10.80;99.90;;;;;;4913691;29;20056;-84
2022/03/21 10:44:33;;;;;;;36.45;18.42;;;10.90;99.90;;;;;;4881218;29;20115;-83
2022/03/21 10:47:05;;;;;;;35.38;18.52;;;11.00;99.90;;;;;;4878898;29;20612;-85
2022/03/21 10:49:55;;;;;;;32.38;17.73;;;11.10;99.90;;;;;;4885429;29;20178;-83
2022/03/21 10:52:22;;;;;;;31.85;16.85;;;11.20;99.90;;;;;;4881176;29;20362;-84
2022/03/21 10:54:51;;;;;;;36.22;17.50;;;11.50;99.90;;;;;;4896510;29;20051;-85
2022/03/21 10:57:37;;;;;;;32.13;16.48;;;11.60;99.90;;;;;;4896368;29;20060;-83
2022/03/21 11:00:21;;;;;;;32.22;16.92;;;11.80;99.90;;;;;;4896313;29;20123;-83
2022/03/21 11:02:56;;;;;;;32.78;17.85;;;11.90;99.90;;;;;;4877777;29;20049;-83
2022/03/21 11:05:23;;;;;;;33.95;17.13;;;12.00;99.90;;;;;;4882135;29;20048;-84
2022/03/21 11:07:50;;;;;;;34.42;17.05;;;12.00;99.90;;;;;;4899258;29;20067;-84
2022/03/21 11:10:17;;;;;;;29.08;15.98;;;12.10;99.90;;;;;;4869296;29;20052;-83
2022/03/21 11:12:45;;;;;;;32.38;17.63;;;12.10;99.90;;;;;;4888129;29;20462;-83
2022/03/21 11:15:12;;;;;;;32.83;17.45;;;12.20;99.90;;;;;;4897125;29;20127;-84
2022/03/21 11:17:38;;;;;;;34.50;17.83;;;12.30;99.90;;;;;;4896343;29;20503;-83
2022/03/21 11:20:05;;;;;;;35.30;19.30;;;12.40;99.90;;;;;;4897355;29;20055;-84
2022/03/21 11:22:35;;;;;;;35.45;17.25;;;12.40;99.90;;;;;;4913433;29;20048;-84
2022/03/21 11:25:06;;;;;;;34.00;19.05;;;12.60;99.90;;;;;;4913303;29;20691;-84
2022/03/21 11:28:05;;;;;;;34.55;17.58;;;12.80;99.90;;;;;;4896205;29;20048;-82
2022/03/21 11:31:02;;;;;;;28.45;16.90;;;12.90;99.90;;;;;;4897100;29;20083;-84
2022/03/21 11:33:40;;;;;;;34.88;17.90;;;13.10;99.90;;;;;;4880227;29;20046;-84
2022/03/21 11:36:09;;;;;;;32.88;17.33;;;13.20;99.90;;;;;;4878895;29;20059;-84
2022/03/21 11:38:45;;;;;;;34.45;17.85;;;13.40;99.90;;;;;;4880909;29;20115;-83
2022/03/21 11:41:22;;;;;;;36.42;17.45;;;13.50;99.90;;;;;;4881613;29;20386;-84
2022/03/21 11:44:03;;;;;;;36.38;18.27;;;13.70;99.90;;;;;;4880198;29;20509;-84
2022/03/21 11:46:31;;;;;;;34.55;18.20;;;14.00;99.90;;;;;;4881745;29;20522;-82
2022/03/21 11:48:59;;;;;;;33.38;17.88;;;14.20;99.90;;;;;;4881103;29;20059;-83
2022/03/21 11:51:27;;;;;;;34.30;18.38;;;14.30;99.90;;;;;;4898384;29;20053;-83
2022/03/21 11:53:54;;;;;;;29.65;17.05;;;14.50;99.90;;;;;;4887930;29;20048;-83
2022/03/21 11:56:45;;;;;;;32.63;17.85;;;14.70;99.90;;;;;;4880677;29;20140;-83
2022/03/21 11:59:36;;;;;;;30.00;17.35;;;14.90;99.90;;;;;;4880602;29;20458;-82
2022/03/21 12:02:07;;;;;;;31.08;18.58;;;15.10;99.90;;;;;;4880933;29;20124;-83
2022/03/21 12:04:34;;;;;;;36.33;17.88;;;15.40;99.90;;;;;;4896392;29;20083;-83
2022/03/21 12:07:12;;;;;;;32.85;17.05;;;15.70;99.90;;;;;;4898323;29;20509;-84
2022/03/21 12:09:46;;;;;;;35.58;17.92;;;15.90;99.90;;;;;;4898905;29;20052;-84
2022/03/21 12:12:13;;;;;;;33.53;18.77;;;16.20;99.90;;;;;;4883513;29;20111;-81
2022/03/21 12:14:45;;;;;;;32.88;17.48;;;16.40;99.90;;;;;;4898893;29;20127;-81
2022/03/21 12:17:11;;;;;;;28.65;17.67;;;16.60;99.90;;;;;;4897759;29;20403;-81
2022/03/21 12:25:16;;;;;;;31.58;18.58;;;17.30;99.90;;;;;;4898713;29;20064;-81
2022/03/21 12:27:55;;;;;;;32.15;18.52;;;17.50;99.90;;;;;;4912327;29;20116;-81
2022/03/21 12:30:21;;;;;;;31.42;17.55;;;17.70;99.90;;;;;;4897795;29;20128;-81
2022/03/21 12:32:53;;;;;;;32.00;17.50;;;17.90;99.30;;;;;;4879752;29;20135;-81
2022/03/21 12:35:31;;;;;;;30.95;17.05;;;18.10;94.50;;;;;;4898003;29;20113;-82
2022/03/21 12:38:23;;;;;;;26.33;16.63;;;18.20;80.80;;;;;;4881019;29;20049;-81
2022/03/21 12:40:51;;;;;;;31.17;18.92;;;18.10;86.10;;;;;;4891217;29;20063;-81
2022/03/21 12:43:19;;;;;;;28.35;17.13;;;18.30;91.60;;;;;;4879821;29;20386;-81
2022/03/21 12:45:45;;;;;;;26.02;16.88;;;18.60;90.90;;;;;;4880153;29;20057;-81
2022/03/21 12:48:14;;;;;;;28.38;17.30;;;18.80;82.40;;;;;;4895593;29;20045;-81
2022/03/21 12:50:40;;;;;;;30.70;17.70;;;19.00;79.50;;;;;;4882722;29;20460;-81
2022/03/21 12:53:11;;;;;;;27.23;17.75;;;19.00;79.20;;;;;;4915936;29;20063;-81
2022/03/21 12:55:38;;;;;;;27.50;17.48;;;19.30;78.00;;;;;;4915089;29;20482;-82
2022/03/21 12:58:10;;;;;;;29.60;17.45;;;19.60;74.90;;;;;;4881826;29;20112;-84
2022/03/21 13:00:38;;;;;;;28.85;17.35;;;19.80;72.60;;;;;;4895450;29;20082;-85
2022/03/21 13:03:12;;;;;;;26.15;17.38;;;20.00;73.50;;;;;;4896077;29;20079;-84
2022/03/21 13:11:34;;;;;;;28.05;17.75;;;20.80;72.10;;;;;;4886723;29;20124;-83